sensor_id;sensor_type;location;lat;lon;timestamp;temperature;humidity
1205;DHT22;592;48.764;9.174;2023-05-14T00:01:04;13.20;99.90
1205;DHT22;592;48.764;9.174;2023-05-14T00:03:32;13.10;99.90
1205;DHT22;592;48.764;9.174;2023-05-14T00:05:59;13.00;99.90
1205;DHT22;592;48.764;9.174;2023-05-14T00:08:26;13.10;99.90
1205;DHT22;592;48.764;9.174;2023-05-14T00:10:53;13.20;99.90
1205;DHT22;592;48.764;9.174;2023-05-14T00:13:20;13.20;99.90
1205;DHT22;592;48.764;9.174;2023-05-14T00:15:46;13.20;99.90
1205;DHT22;592;48.764;9.174;2023-05-14T00:18:14;13.20;99.90
1205;DHT22;592;48.764;9.174;2023-05-14T00:20:41;13.20;99.90
1205;DHT22;592;48.764;9.174;2023-05-14T00:23:08;13.20;99.90
1205;DHT22;592;48.764;9.174;2023-05-14T00:25:35;13.10;99.90
1205;DHT22;592;48.764;9.174;2023-05-14T00:28:02;13.20;99.90
1205;DHT22;592;48.764;9.174;2023-05-14T00:30:29;13.20;99.90
1205;DHT22;592;48.764;9.174;2023-05-14T00:32:55;13.10;99.90
1205;DHT22;592;48.764;9.174;2023-05-14T00:35:23;13.10;99.90
1205;DHT22;592;48.764;9.174;2023-05-14T00:37:50;12.70;99.90
1205;DHT22;592;48.764;9.174;2023-05-14T00:40:17;12.40;99.90
1205;DHT22;592;48.764;9.174;2023-05-14T00:42:43;12.20;99.90
1205;DHT22;592;48.764;9.174;2023-05-14T00:45:10;12.30;99.90
1205;DHT22;592;48.764;9.174;2023-05-14T00:47:37;12.30;99.90
1205;DHT22;592;48.764;9.174;2023-05-14T00:50:05;12.20;99.90
1205;DHT22;592;48.764;9.174;2023-05-14T00:52:33;12.30;99.90
1205;DHT22;592;48.764;9.174;2023-05-14T00:55:02;12.50;99.90
1205;DHT22;592;48.764;9.174;2023-05-14T00:57:29;12.60;99.90
1205;DHT22;592;48.764;9.174;2023-05-14T00:59:56;12.60;99.90
1205;DHT22;592;48.764;9.174;2023-05-14T01:02:23;12.60;99.90
1205;DHT22;592;48.764;9.174;2023-05-14T01:04:51;12.60;99.90
1205;DHT22;592;48.764;9.174;2023-05-14T01:07:24;12.60;99.90
1205;DHT22;592;48.764;9.174;2023-05-14T01:10:00;12.60;99.90
1205;DHT22;592;48.764;9.174;2023-05-14T01:12:33;12.60;99.90
1205;DHT22;592;48.764;9.174;2023-05-14T01:15:06;12.50;99.90
1205;DHT22;592;48.764;9.174;2023-05-14T01:17:41;12.60;99.90
1205;DHT22;592;48.764;9.174;2023-05-14T01:20:09;12.60;99.90
1205;DHT22;592;48.764;9.174;2023-05-14T01:22:38;12.50;99.90
1205;DHT22;592;48.764;9.174;2023-05-14T01:25:05;12.20;99.90
1205;DHT22;592;48.764;9.174;2023-05-14T01:27:37;12.10;99.90
1205;DHT22;592;48.764;9.174;2023-05-14T01:30:11;12.30;99.90
1205;DHT22;592;48.764;9.174;2023-05-14T01:32:39;12.40;99.90
1205;DHT22;592;48.764;9.174;2023-05-14T01:35:07;12.30;99.90
1205;DHT22;592;48.764;9.174;2023-05-14T01:37:35;12.30;99.90
1205;DHT22;592;48.764;9.174;2023-05-14T01:40:07;12.30;99.90
1205;DHT22;592;48.764;9.174;2023-05-14T01:42:34;12.30;99.90
1205;DHT22;592;48.764;9.174;2023-05-14T01:45:01;12.30;99.90
1205;DHT22;592;48.764;9.174;2023-05-14T01:47:28;12.00;99.90
1205;DHT22;592;48.764;9.174;2023-05-14T01:49:55;11.90;99.90
1205;DHT22;592;48.764;9.174;2023-05-14T01:52:22;12.10;99.90
1205;DHT22;592;48.764;9.174;2023-05-14T01:54:48;12.00;99.90
1205;DHT22;592;48.764;9.174;2023-05-14T01:57:16;12.00;99.90
1205;DHT22;592;48.764;9.174;2023-05-14T01:59:43;12.00;99.90
1205;DHT22;592;48.764;9.174;2023-05-14T02:02:10;12.10;99.90
1205;DHT22;592;48.764;9.174;2023-05-14T02:04:36;12.10;99.90
1205;DHT22;592;48.764;9.174;2023-05-14T02:07:04;12.00;99.90
1205;DHT22;592;48.764;9.174;2023-05-14T02:09:30;12.00;99.90
1205;DHT22;592;48.764;9.174;2023-05-14T02:11:57;12.00;99.90
1205;DHT22;592;48.764;9.174;2023-05-14T02:14:25;12.00;99.90
1205;DHT22;592;48.764;9.174;2023-05-14T02:16:52;12.00;99.90
1205;DHT22;592;48.764;9.174;2023-05-14T02:19:18;11.90;99.90
1205;DHT22;592;48.764;9.174;2023-05-14T02:21:45;11.90;99.90
1205;DHT22;592;48.764;9.174;2023-05-14T02:24:12;11.80;99.90
1205;DHT22;592;48.764;9.174;2023-05-14T02:26:39;11.80;99.90
1205;DHT22;592;48.764;9.174;2023-05-14T02:29:06;11.50;99.90
1205;DHT22;592;48.764;9.174;2023-05-14T02:31:34;11.40;99.90
1205;DHT22;592;48.764;9.174;2023-05-14T02:34:02;11.40;99.90
1205;DHT22;592;48.764;9.174;2023-05-14T02:36:29;11.50;99.90
1205;DHT22;592;48.764;9.174;2023-05-14T02:38:58;11.50;99.90
1205;DHT22;592;48.764;9.174;2023-05-14T02:41:25;11.60;99.90
1205;DHT22;592;48.764;9.174;2023-05-14T02:43:52;11.70;99.90
1205;DHT22;592;48.764;9.174;2023-05-14T02:46:19;11.70;99.90
1205;DHT22;592;48.764;9.174;2023-05-14T02:48:47;11.80;99.90
1205;DHT22;592;48.764;9.174;2023-05-14T02:51:14;11.80;99.90
1205;DHT22;592;48.764;9.174;2023-05-14T02:53:40;11.90;99.90
1205;DHT22;592;48.764;9.174;2023-05-14T02:56:07;11.90;99.90
1205;DHT22;592;48.764;9.174;2023-05-14T02:58:34;11.90;99.90
1205;DHT22;592;48.764;9.174;2023-05-14T03:01:00;11.90;99.90
1205;DHT22;592;48.764;9.174;2023-05-14T03:03:28;12.00;99.90
1205;DHT22;592;48.764;9.174;2023-05-14T03:05:56;12.00;99.90
1205;DHT22;592;48.764;9.174;2023-05-14T03:08:23;11.90;99.90
1205;DHT22;592;48.764;9.174;2023-05-14T03:10:50;11.70;99.90
1205;DHT22;592;48.764;9.174;2023-05-14T03:13:16;11.60;99.90
1205;DHT22;592;48.764;9.174;2023-05-14T03:15:45;11.60;99.90
1205;DHT22;592;48.764;9.174;2023-05-14T03:18:13;11.40;99.90
1205;DHT22;592;48.764;9.174;2023-05-14T03:20:40;11.50;99.90
1205;DHT22;592;48.764;9.174;2023-05-14T03:23:08;11.50;99.90
1205;DHT22;592;48.764;9.174;2023-05-14T03:25:35;11.60;99.90
1205;DHT22;592;48.764;9.174;2023-05-14T03:28:02;11.50;99.90
1205;DHT22;592;48.764;9.174;2023-05-14T03:30:28;11.50;99.90
1205;DHT22;592;48.764;9.174;2023-05-14T03:32:55;11.50;99.90
1205;DHT22;592;48.764;9.174;2023-05-14T03:35:22;11.50;99.90
1205;DHT22;592;48.764;9.174;2023-05-14T03:37:49;11.40;99.90
1205;DHT22;592;48.764;9.174;2023-05-14T03:40:18;11.40;99.90
1205;DHT22;592;48.764;9.174;2023-05-14T03:42:45;11.50;99.90
1205;DHT22;592;48.764;9.174;2023-05-14T03:45:12;11.60;99.90
1205;DHT22;592;48.764;9.174;2023-05-14T03:47:38;11.60;99.90
1205;DHT22;592;48.764;9.174;2023-05-14T03:50:07;11.60;99.90
1205;DHT22;592;48.764;9.174;2023-05-14T03:52:33;11.60;99.90
1205;DHT22;592;48.764;9.174;2023-05-14T03:55:00;11.70;99.90
1205;DHT22;592;48.764;9.174;2023-05-14T03:57:28;11.50;99.90
1205;DHT22;592;48.764;9.174;2023-05-14T03:59:55;11.50;99.90
1205;DHT22;592;48.764;9.174;2023-05-14T04:02:22;11.60;99.90
1205;DHT22;592;48.764;9.174;2023-05-14T04:04:48;11.60;99.90
1205;DHT22;592;48.764;9.174;2023-05-14T04:07:15;11.60;99.90
1205;DHT22;592;48.764;9.174;2023-05-14T04:09:41;11.70;99.90
1205;DHT22;592;48.764;9.174;2023-05-14T04:12:08;11.60;99.90
1205;DHT22;592;48.764;9.174;2023-05-14T04:14:36;11.50;99.90
1205;DHT22;592;48.764;9.174;2023-05-14T04:17:03;11.50;99.90
1205;DHT22;592;48.764;9.174;2023-05-14T04:19:30;11.40;99.90
1205;DHT22;592;48.764;9.174;2023-05-14T04:21:56;11.30;99.90
1205;DHT22;592;48.764;9.174;2023-05-14T04:24:23;11.30;99.90
1205;DHT22;592;48.764;9.174;2023-05-14T04:26:50;11.30;99.90
1205;DHT22;592;48.764;9.174;2023-05-14T04:29:17;11.50;99.90
1205;DHT22;592;48.764;9.174;2023-05-14T04:31:45;11.50;99.90
1205;DHT22;592;48.764;9.174;2023-05-14T04:34:11;11.40;99.90
1205;DHT22;592;48.764;9.174;2023-05-14T04:36:38;11.40;99.90
1205;DHT22;592;48.764;9.174;2023-05-14T04:39:05;11.20;99.90
1205;DHT22;592;48.764;9.174;2023-05-14T04:41:33;11.20;99.90
1205;DHT22;592;48.764;9.174;2023-05-14T04:44:02;11.20;99.90
1205;DHT22;592;48.764;9.174;2023-05-14T04:46:29;11.20;99.90
1205;DHT22;592;48.764;9.174;2023-05-14T04:48:57;11.20;99.90
1205;DHT22;592;48.764;9.174;2023-05-14T04:51:23;11.30;99.90
1205;DHT22;592;48.764;9.174;2023-05-14T04:53:50;11.10;99.90
1205;DHT22;592;48.764;9.174;2023-05-14T04:56:17;11.00;99.90
1205;DHT22;592;48.764;9.174;2023-05-14T04:58:44;11.00;99.90
1205;DHT22;592;48.764;9.174;2023-05-14T05:01:10;11.10;99.90
1205;DHT22;592;48.764;9.174;2023-05-14T05:03:37;11.10;99.90
1205;DHT22;592;48.764;9.174;2023-05-14T05:06:06;11.10;99.90
1205;DHT22;592;48.764;9.174;2023-05-14T05:08:32;11.00;99.90
1205;DHT22;592;48.764;9.174;2023-05-14T05:10:59;11.10;99.90
1205;DHT22;592;48.764;9.174;2023-05-14T05:13:26;11.20;99.90
1205;DHT22;592;48.764;9.174;2023-05-14T05:15:52;11.20;99.90
1205;DHT22;592;48.764;9.174;2023-05-14T05:18:19;11.10;99.90
1205;DHT22;592;48.764;9.174;2023-05-14T05:20:46;11.00;99.90
1205;DHT22;592;48.764;9.174;2023-05-14T05:23:14;10.90;99.90
1205;DHT22;592;48.764;9.174;2023-05-14T05:25:40;11.00;99.90
1205;DHT22;592;48.764;9.174;2023-05-14T05:28:07;10.90;99.90
1205;DHT22;592;48.764;9.174;2023-05-14T05:30:34;10.90;99.90
1205;DHT22;592;48.764;9.174;2023-05-14T05:33:00;11.00;99.90
1205;DHT22;592;48.764;9.174;2023-05-14T05:35:27;10.90;99.90
1205;DHT22;592;48.764;9.174;2023-05-14T05:37:54;10.90;99.90
1205;DHT22;592;48.764;9.174;2023-05-14T05:40:22;10.90;99.90
1205;DHT22;592;48.764;9.174;2023-05-14T05:42:48;10.90;99.90
1205;DHT22;592;48.764;9.174;2023-05-14T05:45:15;11.10;99.90
1205;DHT22;592;48.764;9.174;2023-05-14T05:47:41;11.10;99.90
1205;DHT22;592;48.764;9.174;2023-05-14T05:50:10;11.10;99.90
1205;DHT22;592;48.764;9.174;2023-05-14T05:52:36;11.10;99.90
1205;DHT22;592;48.764;9.174;2023-05-14T05:55:04;11.10;99.90
1205;DHT22;592;48.764;9.174;2023-05-14T05:57:32;11.10;99.90
1205;DHT22;592;48.764;9.174;2023-05-14T05:59:59;11.10;99.90
1205;DHT22;592;48.764;9.174;2023-05-14T06:02:32;11.00;99.90
1205;DHT22;592;48.764;9.174;2023-05-14T06:04:58;10.90;99.90
1205;DHT22;592;48.764;9.174;2023-05-14T06:07:25;11.00;99.90
1205;DHT22;592;48.764;9.174;2023-05-14T06:09:52;11.00;99.90
1205;DHT22;592;48.764;9.174;2023-05-14T06:12:19;11.10;99.90
1205;DHT22;592;48.764;9.174;2023-05-14T06:14:47;11.10;99.90
1205;DHT22;592;48.764;9.174;2023-05-14T06:17:14;11.10;99.90
1205;DHT22;592;48.764;9.174;2023-05-14T06:19:40;11.10;99.90
1205;DHT22;592;48.764;9.174;2023-05-14T06:22:07;11.00;99.90
1205;DHT22;592;48.764;9.174;2023-05-14T06:24:34;11.20;99.90
1205;DHT22;592;48.764;9.174;2023-05-14T06:27:00;11.30;99.90
1205;DHT22;592;48.764;9.174;2023-05-14T06:29:27;11.30;99.90
1205;DHT22;592;48.764;9.174;2023-05-14T06:31:59;11.50;99.90
1205;DHT22;592;48.764;9.174;2023-05-14T06:34:26;11.40;99.90
1205;DHT22;592;48.764;9.174;2023-05-14T06:36:53;11.50;99.90
1205;DHT22;592;48.764;9.174;2023-05-14T06:39:19;11.50;99.90
1205;DHT22;592;48.764;9.174;2023-05-14T06:41:46;11.60;99.90
1205;DHT22;592;48.764;9.174;2023-05-14T06:44:13;11.60;99.90
1205;DHT22;592;48.764;9.174;2023-05-14T06:46:39;11.70;99.90
1205;DHT22;592;48.764;9.174;2023-05-14T06:49:07;11.80;99.90
1205;DHT22;592;48.764;9.174;2023-05-14T06:51:34;11.90;99.90
1205;DHT22;592;48.764;9.174;2023-05-14T06:54:00;12.00;99.90
1205;DHT22;592;48.764;9.174;2023-05-14T06:56:27;12.00;99.90
1205;DHT22;592;48.764;9.174;2023-05-14T06:58:54;12.20;99.90
1205;DHT22;592;48.764;9.174;2023-05-14T07:01:20;12.20;99.90
1205;DHT22;592;48.764;9.174;2023-05-14T07:03:47;12.20;99.90
1205;DHT22;592;48.764;9.174;2023-05-14T07:06:15;12.30;99.90
1205;DHT22;592;48.764;9.174;2023-05-14T07:08:42;12.40;99.90
1205;DHT22;592;48.764;9.174;2023-05-14T07:11:10;12.50;99.90
1205;DHT22;592;48.764;9.174;2023-05-14T07:13:37;12.50;99.90
1205;DHT22;592;48.764;9.174;2023-05-14T07:16:05;12.60;99.90
1205;DHT22;592;48.764;9.174;2023-05-14T07:18:32;12.60;99.90
1205;DHT22;592;48.764;9.174;2023-05-14T07:20:58;12.60;99.90
1205;DHT22;592;48.764;9.174;2023-05-14T07:23:26;12.60;99.90
1205;DHT22;592;48.764;9.174;2023-05-14T07:25:53;12.60;99.90
1205;DHT22;592;48.764;9.174;2023-05-14T07:28:20;12.40;99.90
1205;DHT22;592;48.764;9.174;2023-05-14T07:30:46;12.30;99.90
1205;DHT22;592;48.764;9.174;2023-05-14T07:33:13;12.40;99.90
1205;DHT22;592;48.764;9.174;2023-05-14T07:35:40;12.50;99.90
1205;DHT22;592;48.764;9.174;2023-05-14T07:38:07;12.50;99.90
1205;DHT22;592;48.764;9.174;2023-05-14T07:40:35;12.60;99.90
1205;DHT22;592;48.764;9.174;2023-05-14T07:43:01;12.60;99.90
1205;DHT22;592;48.764;9.174;2023-05-14T07:45:28;12.70;99.90
1205;DHT22;592;48.764;9.174;2023-05-14T07:47:55;13.00;99.90
1205;DHT22;592;48.764;9.174;2023-05-14T07:50:21;13.10;99.90
1205;DHT22;592;48.764;9.174;2023-05-14T07:52:48;12.90;99.90
1205;DHT22;592;48.764;9.174;2023-05-14T07:55:15;12.90;99.90
1205;DHT22;592;48.764;9.174;2023-05-14T07:57:43;13.20;99.90
1205;DHT22;592;48.764;9.174;2023-05-14T08:00:11;13.40;99.90
1205;DHT22;592;48.764;9.174;2023-05-14T08:02:37;13.60;99.90
1205;DHT22;592;48.764;9.174;2023-05-14T08:05:05;13.50;99.90
1205;DHT22;592;48.764;9.174;2023-05-14T08:07:32;13.70;99.90
1205;DHT22;592;48.764;9.174;2023-05-14T08:09:58;13.80;99.90
1205;DHT22;592;48.764;9.174;2023-05-14T08:12:25;13.70;99.90
1205;DHT22;592;48.764;9.174;2023-05-14T08:14:54;13.50;99.90
1205;DHT22;592;48.764;9.174;2023-05-14T08:17:21;13.70;99.90
1205;DHT22;592;48.764;9.174;2023-05-14T08:19:48;13.60;99.90
1205;DHT22;592;48.764;9.174;2023-05-14T08:22:14;13.90;99.90
1205;DHT22;592;48.764;9.174;2023-05-14T08:24:41;14.00;99.90
1205;DHT22;592;48.764;9.174;2023-05-14T08:27:08;14.00;99.90
1205;DHT22;592;48.764;9.174;2023-05-14T08:29:35;14.10;99.90
1205;DHT22;592;48.764;9.174;2023-05-14T08:32:03;14.10;99.90
1205;DHT22;592;48.764;9.174;2023-05-14T08:34:30;14.00;99.90
1205;DHT22;592;48.764;9.174;2023-05-14T08:36:57;14.00;99.90
1205;DHT22;592;48.764;9.174;2023-05-14T08:39:23;14.20;99.90
1205;DHT22;592;48.764;9.174;2023-05-14T08:41:50;14.40;99.90
1205;DHT22;592;48.764;9.174;2023-05-14T08:44:18;14.70;99.90
1205;DHT22;592;48.764;9.174;2023-05-14T08:46:46;14.70;99.90
1205;DHT22;592;48.764;9.174;2023-05-14T08:49:26;14.90;99.90
1205;DHT22;592;48.764;9.174;2023-05-14T08:51:55;14.90;99.90
1205;DHT22;592;48.764;9.174;2023-05-14T08:54:22;14.80;99.90
1205;DHT22;592;48.764;9.174;2023-05-14T08:56:51;14.90;99.90
1205;DHT22;592;48.764;9.174;2023-05-14T08:59:18;14.80;99.90
1205;DHT22;592;48.764;9.174;2023-05-14T09:01:46;14.70;99.90
1205;DHT22;592;48.764;9.174;2023-05-14T09:04:17;14.80;99.90
1205;DHT22;592;48.764;9.174;2023-05-14T09:06:47;15.00;99.90
1205;DHT22;592;48.764;9.174;2023-05-14T09:09:14;15.10;99.90
1205;DHT22;592;48.764;9.174;2023-05-14T09:11:41;15.10;99.90
1205;DHT22;592;48.764;9.174;2023-05-14T09:14:09;15.10;99.90
1205;DHT22;592;48.764;9.174;2023-05-14T09:16:35;15.20;99.90
1205;DHT22;592;48.764;9.174;2023-05-14T09:19:02;14.90;99.90
1205;DHT22;592;48.764;9.174;2023-05-14T09:21:31;15.10;99.90
1205;DHT22;592;48.764;9.174;2023-05-14T09:23:58;15.10;99.90
1205;DHT22;592;48.764;9.174;2023-05-14T09:26:25;15.10;99.90
1205;DHT22;592;48.764;9.174;2023-05-14T09:28:53;15.00;99.90
1205;DHT22;592;48.764;9.174;2023-05-14T09:31:20;15.10;99.90
1205;DHT22;592;48.764;9.174;2023-05-14T09:33:49;15.40;99.90
1205;DHT22;592;48.764;9.174;2023-05-14T09:36:16;15.40;99.90
1205;DHT22;592;48.764;9.174;2023-05-14T09:38:44;15.50;99.90
1205;DHT22;592;48.764;9.174;2023-05-14T09:41:11;15.70;99.90
1205;DHT22;592;48.764;9.174;2023-05-14T09:43:38;15.80;99.90
1205;DHT22;592;48.764;9.174;2023-05-14T09:46:05;15.80;99.90
1205;DHT22;592;48.764;9.174;2023-05-14T09:48:31;15.90;99.90
1205;DHT22;592;48.764;9.174;2023-05-14T09:50:58;15.70;99.90
1205;DHT22;592;48.764;9.174;2023-05-14T09:53:25;15.70;99.90
1205;DHT22;592;48.764;9.174;2023-05-14T09:55:53;15.50;99.90
1205;DHT22;592;48.764;9.174;2023-05-14T09:58:19;15.50;99.90
1205;DHT22;592;48.764;9.174;2023-05-14T10:00:46;15.40;99.90
1205;DHT22;592;48.764;9.174;2023-05-14T10:03:14;15.40;99.90
1205;DHT22;592;48.764;9.174;2023-05-14T10:05:41;15.40;99.90
1205;DHT22;592;48.764;9.174;2023-05-14T10:08:11;15.40;99.90
1205;DHT22;592;48.764;9.174;2023-05-14T10:10:38;15.70;99.90
1205;DHT22;592;48.764;9.174;2023-05-14T10:13:10;15.80;99.90
1205;DHT22;592;48.764;9.174;2023-05-14T10:15:42;15.80;99.90
1205;DHT22;592;48.764;9.174;2023-05-14T10:18:11;15.60;99.90
1205;DHT22;592;48.764;9.174;2023-05-14T10:20:39;15.40;99.90
1205;DHT22;592;48.764;9.174;2023-05-14T10:23:06;15.30;99.90
1205;DHT22;592;48.764;9.174;2023-05-14T10:25:33;15.20;99.90
1205;DHT22;592;48.764;9.174;2023-05-14T10:28:01;15.30;99.90
1205;DHT22;592;48.764;9.174;2023-05-14T10:30:29;15.40;99.90
1205;DHT22;592;48.764;9.174;2023-05-14T10:33:07;15.50;99.90
1205;DHT22;592;48.764;9.174;2023-05-14T10:36:02;15.70;99.90
1205;DHT22;592;48.764;9.174;2023-05-14T10:38:31;15.80;99.90
1205;DHT22;592;48.764;9.174;2023-05-14T10:41:00;16.10;99.90
1205;DHT22;592;48.764;9.174;2023-05-14T10:43:28;15.90;99.90
1205;DHT22;592;48.764;9.174;2023-05-14T10:45:57;16.00;99.90
1205;DHT22;592;48.764;9.174;2023-05-14T10:48:24;16.00;99.90
1205;DHT22;592;48.764;9.174;2023-05-14T10:50:52;16.10;99.90
1205;DHT22;592;48.764;9.174;2023-05-14T10:53:19;16.30;99.90
1205;DHT22;592;48.764;9.174;2023-05-14T10:55:46;16.50;99.90
1205;DHT22;592;48.764;9.174;2023-05-14T10:58:14;16.60;99.90
1205;DHT22;592;48.764;9.174;2023-05-14T11:00:40;16.60;99.90
1205;DHT22;592;48.764;9.174;2023-05-14T11:03:09;16.40;99.90
1205;DHT22;592;48.764;9.174;2023-05-14T11:05:38;16.40;99.90
1205;DHT22;592;48.764;9.174;2023-05-14T11:08:07;16.50;99.90
1205;DHT22;592;48.764;9.174;2023-05-14T11:10:34;16.20;99.90
1205;DHT22;592;48.764;9.174;2023-05-14T11:13:01;16.20;99.90
1205;DHT22;592;48.764;9.174;2023-05-14T11:15:28;16.10;99.90
1205;DHT22;592;48.764;9.174;2023-05-14T11:17:54;16.20;99.90
1205;DHT22;592;48.764;9.174;2023-05-14T11:20:22;16.30;99.90
1205;DHT22;592;48.764;9.174;2023-05-14T11:22:49;16.00;99.90
1205;DHT22;592;48.764;9.174;2023-05-14T11:25:16;15.80;99.90
1205;DHT22;592;48.764;9.174;2023-05-14T11:27:44;15.60;99.90
1205;DHT22;592;48.764;9.174;2023-05-14T11:30:13;15.60;99.90
1205;DHT22;592;48.764;9.174;2023-05-14T11:32:40;15.50;99.90
1205;DHT22;592;48.764;9.174;2023-05-14T11:35:07;15.50;99.90
1205;DHT22;592;48.764;9.174;2023-05-14T11:37:35;15.60;99.90
1205;DHT22;592;48.764;9.174;2023-05-14T11:40:06;15.90;99.90
1205;DHT22;592;48.764;9.174;2023-05-14T11:42:33;16.30;99.90
1205;DHT22;592;48.764;9.174;2023-05-14T11:45:01;16.60;99.90
1205;DHT22;592;48.764;9.174;2023-05-14T11:47:28;16.80;99.90
1205;DHT22;592;48.764;9.174;2023-05-14T11:49:55;17.00;99.90
1205;DHT22;592;48.764;9.174;2023-05-14T11:52:22;17.20;99.90
1205;DHT22;592;48.764;9.174;2023-05-14T11:54:50;16.90;99.90
1205;DHT22;592;48.764;9.174;2023-05-14T11:57:18;16.50;99.90
1205;DHT22;592;48.764;9.174;2023-05-14T11:59:46;16.50;99.90
1205;DHT22;592;48.764;9.174;2023-05-14T12:02:14;16.50;99.90
1205;DHT22;592;48.764;9.174;2023-05-14T12:04:42;16.30;99.90
1205;DHT22;592;48.764;9.174;2023-05-14T12:07:10;16.50;99.90
1205;DHT22;592;48.764;9.174;2023-05-14T12:09:38;16.70;99.90
1205;DHT22;592;48.764;9.174;2023-05-14T12:12:10;16.60;99.90
1205;DHT22;592;48.764;9.174;2023-05-14T12:14:39;16.80;99.90
1205;DHT22;592;48.764;9.174;2023-05-14T12:17:10;16.80;99.90
1205;DHT22;592;48.764;9.174;2023-05-14T12:19:39;16.60;99.90
1205;DHT22;592;48.764;9.174;2023-05-14T12:22:07;16.70;99.90
1205;DHT22;592;48.764;9.174;2023-05-14T12:24:34;16.90;99.90
1205;DHT22;592;48.764;9.174;2023-05-14T12:27:01;17.00;99.90
1205;DHT22;592;48.764;9.174;2023-05-14T12:29:29;17.00;99.90
1205;DHT22;592;48.764;9.174;2023-05-14T12:31:56;17.00;99.90
1205;DHT22;592;48.764;9.174;2023-05-14T12:34:23;16.60;99.90
1205;DHT22;592;48.764;9.174;2023-05-14T12:36:50;16.50;99.90
1205;DHT22;592;48.764;9.174;2023-05-14T12:39:17;16.50;99.90
1205;DHT22;592;48.764;9.174;2023-05-14T12:41:43;16.50;99.90
1205;DHT22;592;48.764;9.174;2023-05-14T12:44:10;16.60;99.90
1205;DHT22;592;48.764;9.174;2023-05-14T12:46:38;16.70;99.90
1205;DHT22;592;48.764;9.174;2023-05-14T12:49:05;16.90;99.90
1205;DHT22;592;48.764;9.174;2023-05-14T12:51:33;17.00;99.90
1205;DHT22;592;48.764;9.174;2023-05-14T12:53:59;17.10;99.90
1205;DHT22;592;48.764;9.174;2023-05-14T12:56:26;17.00;99.90
1205;DHT22;592;48.764;9.174;2023-05-14T12:58:55;17.00;99.90
1205;DHT22;592;48.764;9.174;2023-05-14T13:01:22;16.70;99.90
1205;DHT22;592;48.764;9.174;2023-05-14T13:03:50;16.70;99.90
1205;DHT22;592;48.764;9.174;2023-05-14T13:06:17;16.80;99.90
1205;DHT22;592;48.764;9.174;2023-05-14T13:08:43;16.90;99.90
1205;DHT22;592;48.764;9.174;2023-05-14T13:11:11;17.10;99.90
1205;DHT22;592;48.764;9.174;2023-05-14T13:13:38;17.30;99.90
1205;DHT22;592;48.764;9.174;2023-05-14T13:16:05;17.50;99.90
1205;DHT22;592;48.764;9.174;2023-05-14T13:18:32;17.60;99.90
1205;DHT22;592;48.764;9.174;2023-05-14T13:21:00;18.20;99.90
1205;DHT22;592;48.764;9.174;2023-05-14T13:23:30;19.10;99.90
1205;DHT22;592;48.764;9.174;2023-05-14T13:25:57;18.30;99.90
1205;DHT22;592;48.764;9.174;2023-05-14T13:28:23;17.50;99.90
1205;DHT22;592;48.764;9.174;2023-05-14T13:31:04;17.30;99.90
1205;DHT22;592;48.764;9.174;2023-05-14T13:33:32;17.20;99.90
1205;DHT22;592;48.764;9.174;2023-05-14T13:36:01;17.10;99.90
1205;DHT22;592;48.764;9.174;2023-05-14T13:38:28;17.10;99.90
1205;DHT22;592;48.764;9.174;2023-05-14T13:40:54;16.70;99.90
1205;DHT22;592;48.764;9.174;2023-05-14T13:43:26;16.70;99.90
1205;DHT22;592;48.764;9.174;2023-05-14T13:45:53;16.70;99.90
1205;DHT22;592;48.764;9.174;2023-05-14T13:48:20;16.50;99.90
1205;DHT22;592;48.764;9.174;2023-05-14T13:50:47;16.50;99.90
1205;DHT22;592;48.764;9.174;2023-05-14T13:53:15;16.50;99.90
1205;DHT22;592;48.764;9.174;2023-05-14T13:55:41;16.50;99.90
1205;DHT22;592;48.764;9.174;2023-05-14T13:58:08;16.60;99.90
1205;DHT22;592;48.764;9.174;2023-05-14T14:00:35;16.70;99.90
1205;DHT22;592;48.764;9.174;2023-05-14T14:03:01;16.90;99.90
1205;DHT22;592;48.764;9.174;2023-05-14T14:05:28;16.70;99.90
1205;DHT22;592;48.764;9.174;2023-05-14T14:07:56;16.60;99.90
1205;DHT22;592;48.764;9.174;2023-05-14T14:10:24;16.70;99.90
1205;DHT22;592;48.764;9.174;2023-05-14T14:12:51;16.60;99.90
1205;DHT22;592;48.764;9.174;2023-05-14T14:15:18;16.70;99.90
1205;DHT22;592;48.764;9.174;2023-05-14T14:17:44;16.80;99.90
1205;DHT22;592;48.764;9.174;2023-05-14T14:20:11;16.70;99.90
1205;DHT22;592;48.764;9.174;2023-05-14T14:22:38;16.70;99.90
1205;DHT22;592;48.764;9.174;2023-05-14T14:25:06;17.10;99.90
1205;DHT22;592;48.764;9.174;2023-05-14T14:27:34;17.20;99.90
1205;DHT22;592;48.764;9.174;2023-05-14T14:30:04;17.20;99.90
1205;DHT22;592;48.764;9.174;2023-05-14T14:32:31;17.30;99.90
1205;DHT22;592;48.764;9.174;2023-05-14T14:34:58;17.50;99.90
1205;DHT22;592;48.764;9.174;2023-05-14T14:37:24;17.70;99.90
1205;DHT22;592;48.764;9.174;2023-05-14T14:39:51;18.00;99.90
1205;DHT22;592;48.764;9.174;2023-05-14T14:42:18;18.50;99.90
1205;DHT22;592;48.764;9.174;2023-05-14T14:44:46;18.20;99.90
1205;DHT22;592;48.764;9.174;2023-05-14T14:47:12;17.80;99.90
1205;DHT22;592;48.764;9.174;2023-05-14T14:49:39;17.70;99.90
1205;DHT22;592;48.764;9.174;2023-05-14T14:52:07;17.30;99.90
1205;DHT22;592;48.764;9.174;2023-05-14T14:54:33;17.30;99.90
1205;DHT22;592;48.764;9.174;2023-05-14T14:57:00;17.50;99.90
1205;DHT22;592;48.764;9.174;2023-05-14T14:59:27;17.90;99.90
1205;DHT22;592;48.764;9.174;2023-05-14T15:01:55;17.80;99.90
1205;DHT22;592;48.764;9.174;2023-05-14T15:04:21;18.00;99.90
1205;DHT22;592;48.764;9.174;2023-05-14T15:06:48;17.70;99.90
1205;DHT22;592;48.764;9.174;2023-05-14T15:09:15;17.50;99.90
1205;DHT22;592;48.764;9.174;2023-05-14T15:11:42;17.40;99.90
1205;DHT22;592;48.764;9.174;2023-05-14T15:14:09;17.30;99.90
1205;DHT22;592;48.764;9.174;2023-05-14T15:16:37;17.30;99.90
1205;DHT22;592;48.764;9.174;2023-05-14T15:19:05;17.50;99.90
1205;DHT22;592;48.764;9.174;2023-05-14T15:21:32;17.80;99.90
1205;DHT22;592;48.764;9.174;2023-05-14T15:23:58;17.80;99.90
1205;DHT22;592;48.764;9.174;2023-05-14T15:26:25;18.00;99.90
1205;DHT22;592;48.764;9.174;2023-05-14T15:28:52;17.90;99.90
1205;DHT22;592;48.764;9.174;2023-05-14T15:31:18;17.90;99.90
1205;DHT22;592;48.764;9.174;2023-05-14T15:33:45;17.60;99.90
1205;DHT22;592;48.764;9.174;2023-05-14T15:36:13;17.20;99.90
1205;DHT22;592;48.764;9.174;2023-05-14T15:38:40;17.10;99.90
1205;DHT22;592;48.764;9.174;2023-05-14T15:41:07;17.10;99.90
1205;DHT22;592;48.764;9.174;2023-05-14T15:43:34;17.10;99.90
1205;DHT22;592;48.764;9.174;2023-05-14T15:46:01;17.10;99.90
1205;DHT22;592;48.764;9.174;2023-05-14T15:48:27;16.90;99.90
1205;DHT22;592;48.764;9.174;2023-05-14T15:50:54;16.80;99.90
1205;DHT22;592;48.764;9.174;2023-05-14T15:53:22;16.70;99.90
1205;DHT22;592;48.764;9.174;2023-05-14T15:55:50;16.60;99.90
1205;DHT22;592;48.764;9.174;2023-05-14T15:58:17;16.70;99.90
1205;DHT22;592;48.764;9.174;2023-05-14T16:00:43;16.60;99.90
1205;DHT22;592;48.764;9.174;2023-05-14T16:03:10;16.70;99.90
1205;DHT22;592;48.764;9.174;2023-05-14T16:05:37;16.80;99.90
1205;DHT22;592;48.764;9.174;2023-05-14T16:08:04;17.00;99.90
1205;DHT22;592;48.764;9.174;2023-05-14T16:10:32;17.00;99.90
1205;DHT22;592;48.764;9.174;2023-05-14T16:12:58;17.00;99.90
1205;DHT22;592;48.764;9.174;2023-05-14T16:15:25;16.80;99.90
1205;DHT22;592;48.764;9.174;2023-05-14T16:17:52;16.80;99.90